sensor_id;sensor_type;location;lat;lon;timestamp;P1;durP1;ratioP1;P2;durP2;ratioP2
11642;SDS011;5877;50.930;6.918;2023-01-06T00:01:03;2.90;;;2.17;;
11642;SDS011;5877;50.930;6.918;2023-01-06T00:05:58;2.03;;;1.80;;
11642;SDS011;5877;50.930;6.918;2023-01-06T00:10:50;2.23;;;1.60;;
11642;SDS011;5877;50.930;6.918;2023-01-06T00:15:42;3.03;;;1.30;;
11642;SDS011;5877;50.930;6.918;2023-01-06T00:20:33;2.67;;;1.20;;
11642;SDS011;5877;50.930;6.918;2023-01-06T00:25:25;1.37;;;0.80;;
11642;SDS011;5877;50.930;6.918;2023-01-06T00:30:17;2.10;;;1.10;;
11642;SDS011;5877;50.930;6.918;2023-01-06T00:35:09;1.93;;;0.90;;
11642;SDS011;5877;50.930;6.918;2023-01-06T00:40:00;1.37;;;0.60;;
11642;SDS011;5877;50.930;6.918;2023-01-06T00:44:52;1.93;;;0.70;;
11642;SDS011;5877;50.930;6.918;2023-01-06T00:49:44;0.80;;;0.80;;
11642;SDS011;5877;50.930;6.918;2023-01-06T00:54:36;1.47;;;0.80;;
11642;SDS011;5877;50.930;6.918;2023-01-06T00:59:28;2.43;;;0.70;;
11642;SDS011;5877;50.930;6.918;2023-01-06T01:04:19;2.73;;;0.90;;
11642;SDS011;5877;50.930;6.918;2023-01-06T01:09:14;1.87;;;0.90;;
11642;SDS011;5877;50.930;6.918;2023-01-06T01:14:09;4.30;;;1.03;;
11642;SDS011;5877;50.930;6.918;2023-01-06T01:19:01;3.37;;;0.90;;
11642;SDS011;5877;50.930;6.918;2023-01-06T01:23:53;2.10;;;1.17;;
11642;SDS011;5877;50.930;6.918;2023-01-06T01:28:45;1.70;;;0.83;;
11642;SDS011;5877;50.930;6.918;2023-01-06T01:33:37;2.17;;;1.00;;
11642;SDS011;5877;50.930;6.918;2023-01-06T01:38:29;3.03;;;1.63;;
11642;SDS011;5877;50.930;6.918;2023-01-06T01:43:21;2.17;;;0.90;;
11642;SDS011;5877;50.930;6.918;2023-01-06T01:48:25;4.10;;;1.50;;
11642;SDS011;5877;50.930;6.918;2023-01-06T01:53:22;1.73;;;0.90;;
11642;SDS011;5877;50.930;6.918;2023-01-06T01:58:18;3.17;;;1.17;;
11642;SDS011;5877;50.930;6.918;2023-01-06T02:03:13;3.27;;;1.43;;
11642;SDS011;5877;50.930;6.918;2023-01-06T02:08:08;3.20;;;1.07;;
11642;SDS011;5877;50.930;6.918;2023-01-06T02:13:22;3.17;;;1.20;;
11642;SDS011;5877;50.930;6.918;2023-01-06T02:18:33;5.37;;;1.50;;
11642;SDS011;5877;50.930;6.918;2023-01-06T02:33:47;2.90;;;1.07;;
11642;SDS011;5877;50.930;6.918;2023-01-06T02:38:54;2.50;;;1.23;;
11642;SDS011;5877;50.930;6.918;2023-01-06T02:44:00;4.33;;;1.30;;
11642;SDS011;5877;50.930;6.918;2023-01-06T02:49:13;4.83;;;0.90;;
11642;SDS011;5877;50.930;6.918;2023-01-06T02:54:18;3.60;;;1.13;;
11642;SDS011;5877;50.930;6.918;2023-01-06T02:59:20;6.63;;;1.00;;
11642;SDS011;5877;50.930;6.918;2023-01-06T03:04:17;4.40;;;1.10;;
11642;SDS011;5877;50.930;6.918;2023-01-06T03:09:18;3.97;;;1.23;;
11642;SDS011;5877;50.930;6.918;2023-01-06T03:19:04;3.47;;;0.90;;
11642;SDS011;5877;50.930;6.918;2023-01-06T03:23:56;3.10;;;1.10;;
11642;SDS011;5877;50.930;6.918;2023-01-06T03:28:49;3.30;;;1.00;;
11642;SDS011;5877;50.930;6.918;2023-01-06T03:33:50;5.53;;;1.10;;
11642;SDS011;5877;50.930;6.918;2023-01-06T03:39:03;3.23;;;0.83;;
11642;SDS011;5877;50.930;6.918;2023-01-06T03:44:06;1.93;;;0.90;;
11642;SDS011;5877;50.930;6.918;2023-01-06T03:54:14;3.50;;;0.90;;
11642;SDS011;5877;50.930;6.918;2023-01-06T03:59:16;3.87;;;1.00;;
11642;SDS011;5877;50.930;6.918;2023-01-06T04:04:14;2.87;;;1.00;;
11642;SDS011;5877;50.930;6.918;2023-01-06T04:09:07;1.93;;;0.90;;
11642;SDS011;5877;50.930;6.918;2023-01-06T04:14:00;1.60;;;0.83;;
11642;SDS011;5877;50.930;6.918;2023-01-06T04:18:52;3.77;;;0.80;;
11642;SDS011;5877;50.930;6.918;2023-01-06T04:23:44;4.90;;;0.97;;
11642;SDS011;5877;50.930;6.918;2023-01-06T04:28:36;2.60;;;0.70;;
11642;SDS011;5877;50.930;6.918;2023-01-06T04:33:28;2.33;;;0.67;;
11642;SDS011;5877;50.930;6.918;2023-01-06T04:38:25;1.70;;;0.73;;
11642;SDS011;5877;50.930;6.918;2023-01-06T04:43:18;2.80;;;0.73;;
11642;SDS011;5877;50.930;6.918;2023-01-06T04:48:10;1.80;;;0.87;;
11642;SDS011;5877;50.930;6.918;2023-01-06T04:53:03;2.47;;;0.80;;
11642;SDS011;5877;50.930;6.918;2023-01-06T04:57:55;2.40;;;0.70;;
11642;SDS011;5877;50.930;6.918;2023-01-06T05:02:47;1.30;;;0.70;;
11642;SDS011;5877;50.930;6.918;2023-01-06T05:07:38;1.13;;;0.70;;
11642;SDS011;5877;50.930;6.918;2023-01-06T05:12:31;1.60;;;0.80;;
11642;SDS011;5877;50.930;6.918;2023-01-06T05:17:23;4.27;;;1.00;;
11642;SDS011;5877;50.930;6.918;2023-01-06T05:22:15;2.03;;;0.70;;
11642;SDS011;5877;50.930;6.918;2023-01-06T05:27:07;3.10;;;0.80;;
11642;SDS011;5877;50.930;6.918;2023-01-06T05:31:59;1.13;;;0.80;;
11642;SDS011;5877;50.930;6.918;2023-01-06T05:36:50;2.60;;;0.93;;
11642;SDS011;5877;50.930;6.918;2023-01-06T05:41:42;2.30;;;0.63;;
11642;SDS011;5877;50.930;6.918;2023-01-06T05:46:34;1.83;;;0.90;;
11642;SDS011;5877;50.930;6.918;2023-01-06T05:51:25;2.97;;;0.93;;
11642;SDS011;5877;50.930;6.918;2023-01-06T05:56:18;1.90;;;0.77;;
11642;SDS011;5877;50.930;6.918;2023-01-06T06:06:13;2.33;;;0.90;;
11642;SDS011;5877;50.930;6.918;2023-01-06T06:11:06;2.40;;;0.67;;
11642;SDS011;5877;50.930;6.918;2023-01-06T06:16:06;2.30;;;0.80;;
11642;SDS011;5877;50.930;6.918;2023-01-06T06:21:02;4.40;;;1.00;;
11642;SDS011;5877;50.930;6.918;2023-01-06T06:25:54;1.73;;;0.90;;
11642;SDS011;5877;50.930;6.918;2023-01-06T06:30:46;2.67;;;1.10;;
11642;SDS011;5877;50.930;6.918;2023-01-06T06:35:38;1.20;;;1.00;;
11642;SDS011;5877;50.930;6.918;2023-01-06T06:40:30;1.40;;;1.00;;
11642;SDS011;5877;50.930;6.918;2023-01-06T06:45:21;2.07;;;0.93;;
11642;SDS011;5877;50.930;6.918;2023-01-06T06:50:13;1.80;;;0.90;;
11642;SDS011;5877;50.930;6.918;2023-01-06T06:55:05;1.53;;;0.73;;
11642;SDS011;5877;50.930;6.918;2023-01-06T06:59:57;1.27;;;0.80;;
11642;SDS011;5877;50.930;6.918;2023-01-06T07:04:48;1.40;;;0.57;;
11642;SDS011;5877;50.930;6.918;2023-01-06T07:09:40;1.33;;;0.60;;
11642;SDS011;5877;50.930;6.918;2023-01-06T07:14:31;0.80;;;0.70;;
11642;SDS011;5877;50.930;6.918;2023-01-06T07:19:23;1.13;;;0.70;;
11642;SDS011;5877;50.930;6.918;2023-01-06T07:24:15;2.37;;;1.00;;
11642;SDS011;5877;50.930;6.918;2023-01-06T07:29:06;1.00;;;0.60;;
11642;SDS011;5877;50.930;6.918;2023-01-06T07:33:58;1.20;;;0.60;;
11642;SDS011;5877;50.930;6.918;2023-01-06T07:38:50;1.30;;;0.80;;
11642;SDS011;5877;50.930;6.918;2023-01-06T07:43:41;1.03;;;0.70;;
11642;SDS011;5877;50.930;6.918;2023-01-06T07:48:33;1.40;;;0.70;;
11642;SDS011;5877;50.930;6.918;2023-01-06T07:53:24;2.10;;;1.10;;
11642;SDS011;5877;50.930;6.918;2023-01-06T07:58:16;1.87;;;0.90;;
11642;SDS011;5877;50.930;6.918;2023-01-06T08:03:08;1.63;;;0.80;;
11642;SDS011;5877;50.930;6.918;2023-01-06T08:08:01;3.40;;;1.13;;
11642;SDS011;5877;50.930;6.918;2023-01-06T08:12:53;1.90;;;0.90;;
11642;SDS011;5877;50.930;6.918;2023-01-06T08:17:45;1.83;;;0.70;;
11642;SDS011;5877;50.930;6.918;2023-01-06T08:22:36;1.63;;;0.80;;
11642;SDS011;5877;50.930;6.918;2023-01-06T08:27:28;2.00;;;1.10;;
11642;SDS011;5877;50.930;6.918;2023-01-06T08:32:20;0.97;;;0.63;;
11642;SDS011;5877;50.930;6.918;2023-01-06T08:37:12;2.33;;;0.90;;
11642;SDS011;5877;50.930;6.918;2023-01-06T08:42:03;0.90;;;0.50;;
11642;SDS011;5877;50.930;6.918;2023-01-06T08:46:55;1.33;;;0.60;;
11642;SDS011;5877;50.930;6.918;2023-01-06T08:51:47;0.73;;;0.50;;
11642;SDS011;5877;50.930;6.918;2023-01-06T08:56:38;1.23;;;0.60;;
11642;SDS011;5877;50.930;6.918;2023-01-06T09:01:31;1.33;;;0.57;;
11642;SDS011;5877;50.930;6.918;2023-01-06T09:06:26;2.17;;;0.60;;
11642;SDS011;5877;50.930;6.918;2023-01-06T09:11:18;0.67;;;0.47;;
11642;SDS011;5877;50.930;6.918;2023-01-06T09:16:11;2.63;;;0.90;;
11642;SDS011;5877;50.930;6.918;2023-01-06T09:21:03;1.00;;;0.60;;
11642;SDS011;5877;50.930;6.918;2023-01-06T09:25:56;2.20;;;0.50;;
11642;SDS011;5877;50.930;6.918;2023-01-06T09:30:48;0.53;;;0.50;;
11642;SDS011;5877;50.930;6.918;2023-01-06T09:35:41;0.70;;;0.50;;
11642;SDS011;5877;50.930;6.918;2023-01-06T09:40:40;0.87;;;0.40;;
11642;SDS011;5877;50.930;6.918;2023-01-06T09:45:37;0.60;;;0.57;;
11642;SDS011;5877;50.930;6.918;2023-01-06T09:50:40;0.40;;;0.40;;
11642;SDS011;5877;50.930;6.918;2023-01-06T09:55:35;0.73;;;0.70;;
11642;SDS011;5877;50.930;6.918;2023-01-06T10:26:05;0.80;;;0.57;;
11642;SDS011;5877;50.930;6.918;2023-01-06T10:31:19;0.60;;;0.60;;
11642;SDS011;5877;50.930;6.918;2023-01-06T10:36:15;1.00;;;0.63;;
11642;SDS011;5877;50.930;6.918;2023-01-06T10:46:39;1.07;;;0.77;;
11642;SDS011;5877;50.930;6.918;2023-01-06T10:51:37;0.40;;;0.40;;
11642;SDS011;5877;50.930;6.918;2023-01-06T10:56:30;0.50;;;0.50;;
11642;SDS011;5877;50.930;6.918;2023-01-06T11:01:25;0.50;;;0.50;;
11642;SDS011;5877;50.930;6.918;2023-01-06T11:06:24;1.23;;;0.50;;
11642;SDS011;5877;50.930;6.918;2023-01-06T11:11:18;1.43;;;0.40;;
11642;SDS011;5877;50.930;6.918;2023-01-06T11:16:21;0.47;;;0.47;;
11642;SDS011;5877;50.930;6.918;2023-01-06T11:21:15;1.33;;;0.80;;
11642;SDS011;5877;50.930;6.918;2023-01-06T11:31:05;1.87;;;0.97;;
11642;SDS011;5877;50.930;6.918;2023-01-06T11:36:08;2.80;;;1.77;;
11642;SDS011;5877;50.930;6.918;2023-01-06T11:41:02;4.60;;;3.07;;
11642;SDS011;5877;50.930;6.918;2023-01-06T11:46:01;3.83;;;2.00;;
11642;SDS011;5877;50.930;6.918;2023-01-06T11:50:57;3.73;;;2.37;;
11642;SDS011;5877;50.930;6.918;2023-01-06T11:56:15;8.30;;;5.23;;
11642;SDS011;5877;50.930;6.918;2023-01-06T12:01:15;3.20;;;2.27;;
11642;SDS011;5877;50.930;6.918;2023-01-06T12:16:32;2.07;;;1.13;;
11642;SDS011;5877;50.930;6.918;2023-01-06T12:21:29;3.63;;;2.07;;
11642;SDS011;5877;50.930;6.918;2023-01-06T12:26:25;2.67;;;1.83;;
11642;SDS011;5877;50.930;6.918;2023-01-06T12:36:43;3.00;;;2.03;;
11642;SDS011;5877;50.930;6.918;2023-01-06T12:46:37;1.00;;;0.90;;
11642;SDS011;5877;50.930;6.918;2023-01-06T12:51:40;3.80;;;1.80;;
11642;SDS011;5877;50.930;6.918;2023-01-06T13:01:41;2.03;;;1.10;;
11642;SDS011;5877;50.930;6.918;2023-01-06T13:11:52;1.10;;;0.83;;
11642;SDS011;5877;50.930;6.918;2023-01-06T13:16:55;1.53;;;1.03;;
11642;SDS011;5877;50.930;6.918;2023-01-06T13:21:54;1.37;;;1.03;;
11642;SDS011;5877;50.930;6.918;2023-01-06T13:32:55;3.33;;;1.33;;
11642;SDS011;5877;50.930;6.918;2023-01-06T13:42:59;1.33;;;0.73;;
11642;SDS011;5877;50.930;6.918;2023-01-06T13:47:55;1.57;;;0.90;;
11642;SDS011;5877;50.930;6.918;2023-01-06T13:52:49;2.20;;;1.30;;
11642;SDS011;5877;50.930;6.918;2023-01-06T13:57:42;1.50;;;1.20;;
11642;SDS011;5877;50.930;6.918;2023-01-06T14:07:37;0.77;;;0.77;;
11642;SDS011;5877;50.930;6.918;2023-01-06T14:12:31;0.80;;;0.70;;
11642;SDS011;5877;50.930;6.918;2023-01-06T14:17:30;1.33;;;1.00;;
11642;SDS011;5877;50.930;6.918;2023-01-06T14:22:27;1.07;;;0.90;;
11642;SDS011;5877;50.930;6.918;2023-01-06T14:37:35;1.87;;;1.33;;
11642;SDS011;5877;50.930;6.918;2023-01-06T14:42:38;2.63;;;1.80;;
11642;SDS011;5877;50.930;6.918;2023-01-06T14:47:41;1.33;;;0.83;;
11642;SDS011;5877;50.930;6.918;2023-01-06T14:52:38;1.53;;;0.87;;
11642;SDS011;5877;50.930;6.918;2023-01-06T14:57:35;1.73;;;1.10;;
11642;SDS011;5877;50.930;6.918;2023-01-06T15:02:31;1.13;;;0.97;;
11642;SDS011;5877;50.930;6.918;2023-01-06T15:07:23;1.73;;;1.40;;
11642;SDS011;5877;50.930;6.918;2023-01-06T15:12:25;0.93;;;0.80;;
11642;SDS011;5877;50.930;6.918;2023-01-06T15:17:19;1.70;;;1.07;;
11642;SDS011;5877;50.930;6.918;2023-01-06T15:22:11;4.03;;;1.73;;
11642;SDS011;5877;50.930;6.918;2023-01-06T15:27:12;3.57;;;1.10;;
11642;SDS011;5877;50.930;6.918;2023-01-06T15:32:06;2.93;;;1.50;;
11642;SDS011;5877;50.930;6.918;2023-01-06T15:37:03;2.93;;;1.80;;
11642;SDS011;5877;50.930;6.918;2023-01-06T15:41:58;2.40;;;1.53;;
11642;SDS011;5877;50.930;6.918;2023-01-06T15:46:51;2.27;;;1.30;;
11642;SDS011;5877;50.930;6.918;2023-01-06T15:51:56;2.03;;;1.37;;
11642;SDS011;5877;50.930;6.918;2023-01-06T15:56:52;2.63;;;1.07;;
11642;SDS011;5877;50.930;6.918;2023-01-06T16:01:47;2.83;;;1.23;;
11642;SDS011;5877;50.930;6.918;2023-01-06T16:06:41;3.50;;;1.30;;
11642;SDS011;5877;50.930;6.918;2023-01-06T16:11:34;1.33;;;1.20;;
11642;SDS011;5877;50.930;6.918;2023-01-06T16:16:44;0.70;;;0.60;;
11642;SDS011;5877;50.930;6.918;2023-01-06T16:21:36;1.50;;;0.90;;
11642;SDS011;5877;50.930;6.918;2023-01-06T16:26:32;1.53;;;0.90;;
11642;SDS011;5877;50.930;6.918;2023-01-06T16:31:32;2.40;;;0.97;;
11642;SDS011;5877;50.930;6.918;2023-01-06T16:36:26;2.70;;;1.20;;
11642;SDS011;5877;50.930;6.918;2023-01-06T16:41:18;1.53;;;1.10;;
11642;SDS011;5877;50.930;6.918;2023-01-06T16:46:13;3.37;;;1.23;;
11642;SDS011;5877;50.930;6.918;2023-01-06T16:51:11;1.43;;;0.93;;
11642;SDS011;5877;50.930;6.918;2023-01-06T16:56:12;1.27;;;0.73;;
11642;SDS011;5877;50.930;6.918;2023-01-06T17:01:11;0.80;;;0.80;;
11642;SDS011;5877;50.930;6.918;2023-01-06T17:06:16;2.80;;;1.07;;
11642;SDS011;5877;50.930;6.918;2023-01-06T17:11:17;2.30;;;1.23;;
11642;SDS011;5877;50.930;6.918;2023-01-06T17:16:16;1.07;;;0.97;;
11642;SDS011;5877;50.930;6.918;2023-01-06T17:26:04;1.47;;;1.00;;
11642;SDS011;5877;50.930;6.918;2023-01-06T17:31:01;1.40;;;0.80;;
11642;SDS011;5877;50.930;6.918;2023-01-06T17:36:03;1.10;;;0.97;;
11642;SDS011;5877;50.930;6.918;2023-01-06T17:41:06;2.00;;;1.30;;
11642;SDS011;5877;50.930;6.918;2023-01-06T17:46:00;2.17;;;1.10;;
11642;SDS011;5877;50.930;6.918;2023-01-06T17:50:54;1.73;;;1.40;;
11642;SDS011;5877;50.930;6.918;2023-01-06T17:55:48;1.20;;;1.00;;
11642;SDS011;5877;50.930;6.918;2023-01-06T18:00:41;2.33;;;1.10;;
11642;SDS011;5877;50.930;6.918;2023-01-06T18:10:25;1.20;;;1.03;;
11642;SDS011;5877;50.930;6.918;2023-01-06T18:15:29;1.90;;;1.00;;
11642;SDS011;5877;50.930;6.918;2023-01-06T18:20:24;1.60;;;1.10;;
11642;SDS011;5877;50.930;6.918;2023-01-06T18:25:16;1.60;;;1.20;;
11642;SDS011;5877;50.930;6.918;2023-01-06T18:35:14;1.63;;;1.30;;
11642;SDS011;5877;50.930;6.918;2023-01-06T18:40:25;1.83;;;1.20;;
11642;SDS011;5877;50.930;6.918;2023-01-06T18:45:24;4.23;;;1.90;;
11642;SDS011;5877;50.930;6.918;2023-01-06T18:50:26;3.63;;;1.83;;
11642;SDS011;5877;50.930;6.918;2023-01-06T18:55:18;1.50;;;1.27;;
11642;SDS011;5877;50.930;6.918;2023-01-06T19:00:31;2.20;;;1.30;;
11642;SDS011;5877;50.930;6.918;2023-01-06T19:05:23;1.20;;;0.97;;
11642;SDS011;5877;50.930;6.918;2023-01-06T19:10:25;1.70;;;1.50;;
11642;SDS011;5877;50.930;6.918;2023-01-06T19:15:21;3.23;;;1.93;;
11642;SDS011;5877;50.930;6.918;2023-01-06T19:20:18;5.60;;;2.77;;
11642;SDS011;5877;50.930;6.918;2023-01-06T19:35:25;12.47;;;4.93;;
11642;SDS011;5877;50.930;6.918;2023-01-06T19:40:29;12.10;;;5.50;;
11642;SDS011;5877;50.930;6.918;2023-01-06T19:45:26;10.67;;;4.80;;
11642;SDS011;5877;50.930;6.918;2023-01-06T19:50:21;7.07;;;4.17;;
11642;SDS011;5877;50.930;6.918;2023-01-06T19:55:17;4.27;;;2.67;;
11642;SDS011;5877;50.930;6.918;2023-01-06T20:00:26;5.30;;;2.37;;
11642;SDS011;5877;50.930;6.918;2023-01-06T20:05:20;2.27;;;2.07;;
11642;SDS011;5877;50.930;6.918;2023-01-06T20:10:12;2.50;;;1.77;;
11642;SDS011;5877;50.930;6.918;2023-01-06T20:15:04;1.83;;;1.67;;
11642;SDS011;5877;50.930;6.918;2023-01-06T20:19:57;2.20;;;1.50;;
11642;SDS011;5877;50.930;6.918;2023-01-06T20:24:48;1.90;;;1.70;;
11642;SDS011;5877;50.930;6.918;2023-01-06T20:29:40;2.33;;;2.10;;
11642;SDS011;5877;50.930;6.918;2023-01-06T20:34:32;2.03;;;1.63;;
11642;SDS011;5877;50.930;6.918;2023-01-06T20:39:24;2.30;;;2.10;;
11642;SDS011;5877;50.930;6.918;2023-01-06T20:44:15;2.20;;;1.80;;
11642;SDS011;5877;50.930;6.918;2023-01-06T20:49:07;2.50;;;1.87;;
11642;SDS011;5877;50.930;6.918;2023-01-06T20:53:59;2.43;;;1.43;;
11642;SDS011;5877;50.930;6.918;2023-01-06T20:58:50;1.87;;;1.37;;
11642;SDS011;5877;50.930;6.918;2023-01-06T21:03:42;1.50;;;0.93;;
11642;SDS011;5877;50.930;6.918;2023-01-06T21:08:34;1.00;;;0.80;;
11642;SDS011;5877;50.930;6.918;2023-01-06T21:13:26;0.80;;;0.80;;
11642;SDS011;5877;50.930;6.918;2023-01-06T21:18:17;1.57;;;0.80;;
11642;SDS011;5877;50.930;6.918;2023-01-06T21:23:09;1.50;;;0.90;;
11642;SDS011;5877;50.930;6.918;2023-01-06T21:28:01;1.27;;;0.70;;
11642;SDS011;5877;50.930;6.918;2023-01-06T21:32:53;0.80;;;0.70;;
11642;SDS011;5877;50.930;6.918;2023-01-06T21:37:45;1.17;;;0.80;;
11642;SDS011;5877;50.930;6.918;2023-01-06T21:42:37;1.13;;;0.87;;
11642;SDS011;5877;50.930;6.918;2023-01-06T21:47:47;2.23;;;0.90;;
11642;SDS011;5877;50.930;6.918;2023-01-06T21:52:39;1.67;;;0.90;;
11642;SDS011;5877;50.930;6.918;2023-01-06T21:57:30;1.10;;;0.90;;
11642;SDS011;5877;50.930;6.918;2023-01-06T22:02:22;1.00;;;0.83;;
11642;SDS011;5877;50.930;6.918;2023-01-06T22:07:15;0.83;;;0.80;;
11642;SDS011;5877;50.930;6.918;2023-01-06T22:12:08;1.30;;;0.70;;
11642;SDS011;5877;50.930;6.918;2023-01-06T22:17:04;0.67;;;0.60;;
11642;SDS011;5877;50.930;6.918;2023-01-06T22:23:13;0.80;;;0.70;;
11642;SDS011;5877;50.930;6.918;2023-01-06T22:53:22;0.70;;;0.67;;
11642;SDS011;5877;50.930;6.918;2023-01-06T22:58:14;2.20;;;0.67;;
11642;SDS011;5877;50.930;6.918;2023-01-06T23:03:06;0.50;;;0.50;;
11642;SDS011;5877;50.930;6.918;2023-01-06T23:07:58;0.80;;;0.60;;
11642;SDS011;5877;50.930;6.918;2023-01-06T23:12:49;1.33;;;0.93;;
11642;SDS011;5877;50.930;6.918;2023-01-06T23:17:43;1.57;;;1.40;;
11642;SDS011;5877;50.930;6.918;2023-01-06T23:22:34;3.47;;;1.60;;
11642;SDS011;5877;50.930;6.918;2023-01-06T23:27:27;1.97;;;1.30;;
11642;SDS011;5877;50.930;6.918;2023-01-06T23:32:21;1.50;;;1.20;;
11642;SDS011;5877;50.930;6.918;2023-01-06T23:37:13;1.57;;;1.30;;
11642;SDS011;5877;50.930;6.918;2023-01-06T23:42:04;2.13;;;1.30;;
11642;SDS011;5877;50.930;6.918;2023-01-06T23:46:57;1.40;;;0.83;;
11642;SDS011;5877;50.930;6.918;2023-01-06T23:51:49;1.00;;;0.90;;
11642;SDS011;5877;50.930;6.918;2023-01-06T23:56:40;2.00;;;1.30;;
